KPDK

Dekalb-Peachtree Airport

Atlanta, Georgia, USA
METAR KPDK 231153Z 00000KT 10SM CLR 08/07 A3021 RMK AO2 SLP236 T00780067 10094 20072 50002
Observed Flight Rules
Oct-23 @ 11:53 UTC (15 minutes ago) Visual Flight Rules
Visibility Clouds
10 miles
  • Clear skies
Temperatures Readings
Current 8°C / 46°F
Dewpoint 7°C / 45°F
Humidity 93%
Altimeter 30.21" Hg
Pressure 1023.6 hPa
Elevation 302
METAR KPDK 231153Z 00000KT 10SM CLR 08/07 A3021 RMK AO2 SLP236 T00780067 10094 20072 50002
Observed Flight Rules
Oct-23 @ 11:53 UTC
(15 minutes ago)
VFR
Clouds
  • Clear skies
Temperature Dewpoint
8°C / 46°F 7°C / 45°F
Humidity Altimeter Pressure
93% 30.21" Hg 1023.6 hPa